METAR Data
IDs: Format: Raw Decoded Include TAF

Data at: 2025 UTC 13 Nov 2019

METAR for:KHPT (Hampton Muni, IA, US)
Text:KHPT 132015Z AUTO 25007KT 4SM -SN SCT020 SCT031 OVC039 M01/M03 A2993 RMK AO2
Temperature: -1.0°C ( 30°F)
Dewpoint: -3.0°C ( 27°F) [RH = 86%]
Pressure (altimeter):29.93 inches Hg (1013.6 mb)
Winds:from the WSW (250 degrees) at 8 MPH (7 knots; 3.6 m/s)
Visibility: 4 sm ( 6 km)
Ceiling:3900 feet AGL
Clouds: scattered clouds at 2000 feet AGL, scattered clouds at 3100 feet AGL, overcast cloud deck at 3900 feet AGL
Weather:-SN (light snow)
QC Flag:automated observation with no human augmentation